Observation data for Plains on 03/01/2021      Previous  Date  Next       Current Mesonet Observations  Soil Data  Daily Summary Page  Observations in Plain Language
KPPS 010600Z 04016G25KT 06/M11 A3009 RMK A01 T00591110  RH  028%=      5-min Rain = 0
KPPS 010605Z 04020G28KT 06/M11 A3009 RMK A01 T00581110  RH  029%=      5-min Rain = 0
KPPS 010610Z 04018G24KT 06/M11 A301 RMK A01 T00581109  RH  029%=      5-min Rain = 0
KPPS 010615Z 04016G25KT 06/M11 A301 RMK A01 T00571109  RH  029%=      5-min Rain = 0
KPPS 010620Z 04019G26KT 06/M11 A301 RMK A01 T00561109  RH  029%=      5-min Rain = 0
KPPS 010625Z 05020G28KT 05/M11 A301 RMK A01 T00541108  RH  030%=      5-min Rain = 0
KPPS 010630Z 05019G25KT 05/M11 A301 RMK A01 T00541108  RH  030%=      5-min Rain = 0
KPPS 010635Z 05020G26KT 05/M11 A301 RMK A01 T00531108  RH  030%=      5-min Rain = 0
KPPS 010640Z 04019G25KT 05/M11 A3011 RMK A01 T00531107  RH  030%=      5-min Rain = 0
KPPS 010645Z 04019G25KT 05/M11 A3011 RMK A01 T00521107  RH  031%=      5-min Rain = 0
KPPS 010650Z 04016G22KT 05/M11 A3012 RMK A01 T00511107  RH  031%=      5-min Rain = 0
KPPS 010655Z 03017G24KT 05/M11 A3012 RMK A01 T00501106  RH  031%=      5-min Rain = 0
KPPS 010700Z 03018G25KT 05/M11 A3012 RMK A01 T00491106  RH  031%=      5-min Rain = 0
KPPS 010705Z 04016G23KT 05/M11 A3012 RMK A01 T00471106  RH  032%=      5-min Rain = 0
KPPS 010710Z 04017G24KT 05/M11 A3012 RMK A01 T00471106  RH  032%=      5-min Rain = 0
KPPS 010715Z 04017G24KT 05/M11 A3012 RMK A01 T00461106  RH  032%=      5-min Rain = 0
KPPS 010720Z 04017G24KT 05/M11 A3013 RMK A01 T00451105  RH  033%=      5-min Rain = 0
KPPS 010725Z 04018G24KT 05/M11 A3013 RMK A01 T00451105  RH  033%=      5-min Rain = 0
KPPS 010730Z 04017G26KT 05/M10 A3012 RMK A01 T00451104  RH  033%=      5-min Rain = 0
KPPS 010735Z 03017G25KT 05/M10 A3012 RMK A01 T00451103  RH  033%=      5-min Rain = 0
KPPS 010740Z 03017G23KT 04/M10 A3012 RMK A01 T00441103  RH  033%=      5-min Rain = 0
KPPS 010745Z 03016G24KT 04/M10 A3012 RMK A01 T00441102  RH  034%=      5-min Rain = 0
KPPS 010750Z 02016G26KT 04/M10 A3011 RMK A01 T00431101  RH  034%=      5-min Rain = 0
KPPS 010755Z 02014G20KT 04/M10 A3012 RMK A01 T00421101  RH  034%=      5-min Rain = 0
KPPS 010800Z 02017G24KT 04/M10 A3012 RMK A01 T00431100  RH  034%=      5-min Rain = 0
KPPS 010805Z 02015G22KT 04/M10 A3014 RMK A01 T00431100  RH  034%=      5-min Rain = 0
KPPS 010810Z 03015G21KT 04/M10 A3015 RMK A01 T00441101  RH  034%=      5-min Rain = 0
KPPS 010815Z 03015G21KT 04/M10 A3015 RMK A01 T00441101  RH  034%=      5-min Rain = 0
KPPS 010820Z 03016G23KT 04/M10 A3014 RMK A01 T00441101  RH  034%=      5-min Rain = 0
KPPS 010825Z 04018G25KT 04/M10 A3013 RMK A01 T00431101  RH  034%=      5-min Rain = 0
KPPS 010830Z 03016G24KT 04/M10 A3014 RMK A01 T00431101  RH  034%=      5-min Rain = 0
KPPS 010835Z 04017G24KT 04/M10 A3015 RMK A01 T00431101  RH  034%=      5-min Rain = 0
KPPS 010840Z 03016G22KT 04/M10 A3015 RMK A01 T00441101  RH  034%=      5-min Rain = 0
KPPS 010845Z 04015G22KT 04/M10 A3015 RMK A01 T00441101  RH  034%=      5-min Rain = 0
KPPS 010850Z 04017G25KT 04/M10 A3015 RMK A01 T00441101  RH  034%=      5-min Rain = 0
KPPS 010855Z 04016G24KT 04/M10 A3015 RMK A01 T00441101  RH  034%=      5-min Rain = 0
KPPS 010900Z 04016G21KT 04/M10 A3015 RMK A01 T00441101  RH  034%=      5-min Rain = 0
KPPS 010905Z 04016G22KT 04/M10 A3015 RMK A01 T00441101  RH  034%=      5-min Rain = 0
KPPS 010910Z 03015G24KT 04/M10 A3015 RMK A01 T00441101  RH  034%=      5-min Rain = 0
KPPS 010915Z 03019G29KT 04/M10 A3014 RMK A01 T00431099  RH  034%=      5-min Rain = 0
KPPS 010920Z 04020G27KT 04/M10 A3014 RMK A01 T00431097  RH  035%=      5-min Rain = 0
KPPS 010925Z 04017G23KT 04/M10 A3015 RMK A01 T00421097  RH  035%=      5-min Rain = 0
KPPS 010930Z 05017G24KT 04/M10 A3015 RMK A01 T00421098  RH  035%=      5-min Rain = 0
KPPS 010935Z 05019G24KT 04/M10 A3016 RMK A01 T00421099  RH  035%=      5-min Rain = 0
KPPS 010940Z 04018G23KT 04/M10 A3016 RMK A01 T00421099  RH  035%=      5-min Rain = 0
KPPS 010945Z 04018G25KT 04/M10 A3016 RMK A01 T00421099  RH  035%=      5-min Rain = 0
KPPS 010950Z 04017G24KT 04/M10 A3017 RMK A01 T00421099  RH  035%=      5-min Rain = 0
KPPS 010955Z 03015G24KT 04/M10 A3018 RMK A01 T00431098  RH  035%=      5-min Rain = 0
KPPS 011000Z 03016G21KT 04/M10 A3018 RMK A01 T00441099  RH  034%=      5-min Rain = 0
KPPS 011005Z 04015G21KT 05/M10 A3019 RMK A01 T00451101  RH  034%=      5-min Rain = 0
KPPS 011010Z 04015KT 05/M10 A3018 RMK A01 T00461103  RH  033%=      5-min Rain = 0
KPPS 011015Z 04014G19KT 05/M10 A3019 RMK A01 T00461101  RH  034%=      5-min Rain = 0
KPPS 011020Z 04012G18KT 05/M10 A3019 RMK A01 T00461098  RH  034%=      5-min Rain = 0
KPPS 011025Z 04011G16KT 05/M10 A3019 RMK A01 T00451097  RH  035%=      5-min Rain = 0
KPPS 011030Z 04010G16KT 05/M10 A302 RMK A01 T00451097  RH  035%=      5-min Rain = 0
KPPS 011035Z 04011KT 05/M10 A302 RMK A01 T00451100  RH  034%=      5-min Rain = 0
KPPS 011040Z 05012KT 04/M10 A3021 RMK A01 T00441097  RH  035%=      5-min Rain = 0
KPPS 011045Z 05016G22KT 04/M07 A3021 RMK A01 T00371071  RH  045%=      5-min Rain = 0
KPPS 011050Z 05015G20KT 03/M05 A3022 RMK A01 T00291049  RH  057%=      5-min Rain = 0
KPPS 011055Z 04017KT 02/M03 A3021 RMK A01 T00211031  RH  069%=      5-min Rain = 0
KPPS 011100Z 04015KT 02/M03 A3021 RMK A01 T00201027  RH  072%=      5-min Rain = 0
KPPS 011105Z 04014G19KT 02/M03 A3021 RMK A01 T00221031  RH  069%=      5-min Rain = 0
KPPS 011110Z 05013KT 02/M03 A3021 RMK A01 T00221034  RH  067%=      5-min Rain = 0
KPPS 011115Z 06012KT 03/M04 A3021 RMK A01 T00251042  RH  062%=      5-min Rain = 0
KPPS 011120Z 07011KT 03/M05 A3021 RMK A01 T00251045  RH  060%=      5-min Rain = 0
KPPS 011125Z 07013KT 02/M03 A3022 RMK A01 T00221034  RH  067%=      5-min Rain = 0
KPPS 011130Z 07014G22KT 02/M03 A3021 RMK A01 T00221029  RH  069%=      5-min Rain = 0
KPPS 011135Z 06014G19KT 02/M04 A3021 RMK A01 T00211035  RH  066%=      5-min Rain = 0
KPPS 011140Z 06013KT 02/M03 A302 RMK A01 T00231030  RH  068%=      5-min Rain = 0
KPPS 011145Z 05013G18KT 03/M03 A302 RMK A01 T00261028  RH  068%=      5-min Rain = 0
KPPS 011150Z 06012KT 03/M03 A3021 RMK A01 T00271033  RH  065%=      5-min Rain = 0
KPPS 011155Z 07011KT 03/M03 A3021 RMK A01 T00261033  RH  065%=      5-min Rain = 0
KPPS 011200Z 07011KT 03/M03 A3021 RMK A01 T00271031  RH  066%=      5-min Rain = 0
KPPS 011205Z 07011KT 03/M03 A3022 RMK A01 T00271029  RH  067%=      5-min Rain = 0
KPPS 011210Z 07012KT 03/M03 A3022 RMK A01 T00291027  RH  067%=      5-min Rain = 0
KPPS 011215Z 05012KT 03/M03 A3022 RMK A01 T00301029  RH  066%=      5-min Rain = 0
KPPS 011220Z 05012KT 03/M03 A3022 RMK A01 T00311032  RH  064%=      5-min Rain = 0
KPPS 011225Z 04011KT 03/M04 A3022 RMK A01 T00321037  RH  061%=      5-min Rain = 0
KPPS 011230Z 05010KT 03/M04 A3022 RMK A01 T00341044  RH  057%=      5-min Rain = 0
KPPS 011235Z 05011KT 03/M05 A3023 RMK A01 T00341050  RH  054%=      5-min Rain = 0
KPPS 011240Z 05010KT 03/M05 A3023 RMK A01 T00341052  RH  053%=      5-min Rain = 0
KPPS 011245Z 05008KT 03/M05 A3024 RMK A01 T00341052  RH  053%=      5-min Rain = 0
KPPS 011250Z 05009KT 03/M06 A3024 RMK A01 T00341055  RH  052%=      5-min Rain = 0
KPPS 011255Z 05009KT 03/M06 A3024 RMK A01 T00341058  RH  051%=      5-min Rain = 0
KPPS 011300Z 05010KT 03/M07 A3024 RMK A01 T00341069  RH  047%=      5-min Rain = 0
KPPS 011305Z 05009KT 03/M08 A3025 RMK A01 T00341079  RH  043%=      5-min Rain = 0
KPPS 011310Z 04007KT 03/M08 A3025 RMK A01 T00331080  RH  043%=      5-min Rain = 0
KPPS 011315Z 04008KT 03/M08 A3025 RMK A01 T00341084  RH  042%=      5-min Rain = 0
KPPS 011320Z 04007KT 03/M09 A3025 RMK A01 T00341087  RH  041%=      5-min Rain = 0
KPPS 011325Z 04008KT 03/M09 A3026 RMK A01 T00341091  RH  040%=      5-min Rain = 0
KPPS 011330Z 04009KT 03/M09 A3026 RMK A01 T00341091  RH  039%=      5-min Rain = 0
KPPS 011335Z 04009KT 03/M09 A3026 RMK A01 T00341094  RH  038%=      5-min Rain = 0
KPPS 011340Z 04009KT 03/M10 A3027 RMK A01 T00341097  RH  038%=      5-min Rain = 0
KPPS 011345Z 04010KT 03/M10 A3028 RMK A01 T00341096  RH  038%=      5-min Rain = 0
KPPS 011350Z 04008KT 03/M10 A3028 RMK A01 T00341096  RH  038%=      5-min Rain = 0
KPPS 011355Z 04008KT 03/M10 A3029 RMK A01 T00341097  RH  038%=      5-min Rain = 0
KPPS 011400Z 03009KT 03/M10 A3029 RMK A01 T00341097  RH  037%=      5-min Rain = 0
KPPS 011405Z 04009G14KT 03/M10 A303 RMK A01 T00341097  RH  037%=      5-min Rain = 0
KPPS 011410Z 03009KT 03/M10 A303 RMK A01 T00341098  RH  037%=      5-min Rain = 0
KPPS 011415Z 04007KT 04/M10 A3031 RMK A01 T00351097  RH  037%=      5-min Rain = 0
KPPS 011420Z 03008KT 04/M10 A3031 RMK A01 T00351096  RH  037%=      5-min Rain = 0
KPPS 011425Z 03007KT 04/M10 A3031 RMK A01 T00351097  RH  037%=      5-min Rain = 0
KPPS 011430Z 02007KT 04/M10 A3032 RMK A01 T00351096  RH  037%=      5-min Rain = 0
KPPS 011435Z 02007G12KT 04/M10 A3032 RMK A01 T00361096  RH  037%=      5-min Rain = 0
KPPS 011440Z 02007KT 04/M10 A3032 RMK A01 T00361095  RH  037%=      5-min Rain = 0
KPPS 011445Z 02008KT 04/M10 A3032 RMK A01 T00361096  RH  037%=      5-min Rain = 0
KPPS 011450Z 02008KT 04/M10 A3033 RMK A01 T00361096  RH  037%=      5-min Rain = 0
KPPS 011455Z 02007KT 04/M10 A3033 RMK A01 T00381096  RH  037%=      5-min Rain = 0
KPPS 011500Z 03007G12KT 04/M09 A3033 RMK A01 T00391094  RH  037%=      5-min Rain = 0
KPPS 011505Z 03008KT 04/M09 A3034 RMK A01 T00401094  RH  037%=      5-min Rain = 0
KPPS 011510Z 02008KT 04/M09 A3034 RMK A01 T00401094  RH  037%=      5-min Rain = 0
KPPS 011515Z 02008KT 04/M09 A3034 RMK A01 T00411093  RH  037%=      5-min Rain = 0
KPPS 011520Z 01009KT 04/M09 A3034 RMK A01 T00431092  RH  037%=      5-min Rain = 0
KPPS 011525Z 02008KT 04/M10 A3034 RMK A01 T00441095  RH  036%=      5-min Rain = 0
KPPS 011530Z 04008KT 05/M10 A3034 RMK A01 T00471095  RH  035%=      5-min Rain = 0
KPPS 011535Z 04008G13KT 05/M10 A3035 RMK A01 T00501096  RH  034%=      5-min Rain = 0
KPPS 011540Z 06011KT 05/M10 A3035 RMK A01 T00521097  RH  033%=      5-min Rain = 0
KPPS 011545Z 04009KT 05/M10 A3035 RMK A01 T00531097  RH  033%=      5-min Rain = 0
KPPS 011550Z 05010KT 05/M10 A3035 RMK A01 T00541099  RH  032%=      5-min Rain = 0
KPPS 011555Z 06009KT 05/M10 A3036 RMK A01 T00511100  RH  032%=      5-min Rain = 0
KPPS 011600Z 05008G13KT 05/M10 A3036 RMK A01 T00521100  RH  032%=      5-min Rain = 0
KPPS 011605Z 06008G13KT 05/M10 A3036 RMK A01 T00501104  RH  032%=      5-min Rain = 0
KPPS 011610Z 05010KT 05/M10 A3037 RMK A01 T00511102  RH  032%=      5-min Rain = 0
KPPS 011615Z 04007G12KT 06/M10 A3037 RMK A01 T00561100  RH  031%=      5-min Rain = 0
KPPS 011620Z 05010KT 06/M11 A3037 RMK A01 T00561105  RH  030%=      5-min Rain = 0
KPPS 011625Z 05010KT 06/M11 A3037 RMK A01 T00561105  RH  030%=      5-min Rain = 0
KPPS 011630Z 04009G14KT 06/M11 A3038 RMK A01 T00551106  RH  030%=      5-min Rain = 0
KPPS 011635Z 06009KT 06/M10 A3038 RMK A01 T00601103  RH  030%=      5-min Rain = 0
KPPS 011640Z 06009G16KT 06/M11 A3038 RMK A01 T00621106  RH  029%=      5-min Rain = 0
KPPS 011645Z 06008G13KT 06/M11 A3038 RMK A01 T00591109  RH  029%=      5-min Rain = 0
KPPS 011650Z 05007G14KT 06/M11 A3038 RMK A01 T00641107  RH  028%=      5-min Rain = 0
KPPS 011655Z 05010KT 07/M11 A3037 RMK A01 T00661111  RH  027%=      5-min Rain = 0
KPPS 011700Z 04008G14KT 06/M12 A3037 RMK A01 T00621115  RH  027%=      5-min Rain = 0
KPPS 011705Z 07008G13KT 07/M12 A3037 RMK A01 T00651116  RH  026%=      5-min Rain = 0
KPPS 011710Z 08008G13KT 06/M12 A3038 RMK A01 T00641117  RH  026%=      5-min Rain = 0
KPPS 011715Z 07007G12KT 07/M12 A3038 RMK A01 T00651121  RH  025%=      5-min Rain = 0
KPPS 011720Z 06009KT 06/M12 A3038 RMK A01 T00641121  RH  025%=      5-min Rain = 0
KPPS 011725Z 06008KT 07/M12 A3038 RMK A01 T00671121  RH  025%=      5-min Rain = 0
KPPS 011730Z 06007KT 07/M12 A3038 RMK A01 T00711119  RH  024%=      5-min Rain = 0
KPPS 011735Z 08008KT 07/M12 A3038 RMK A01 T00671120  RH  025%=      5-min Rain = 0
KPPS 011740Z 06007G14KT 07/M12 A3038 RMK A01 T00691118  RH  025%=      5-min Rain = 0
KPPS 011745Z 05008G15KT 07/M12 A3038 RMK A01 T00721117  RH  025%=      5-min Rain = 0
KPPS 011750Z 06012G17KT 08/M13 A3039 RMK A01 T00761125  RH  022%=      5-min Rain = 0
KPPS 011755Z 06009KT 07/M12 A3038 RMK A01 T00741123  RH  023%=      5-min Rain = 0
KPPS 011800Z 06009G15KT 08/M12 A3038 RMK A01 T00761124  RH  023%=      5-min Rain = 0
KPPS 011805Z 05009KT 07/M13 A3038 RMK A01 T00711127  RH  023%=      5-min Rain = 0
KPPS 011810Z 04008KT 07/M12 A3039 RMK A01 T00741123  RH  023%=      5-min Rain = 0
KPPS 011815Z 05009KT 07/M13 A3039 RMK A01 T00741125  RH  023%=      5-min Rain = 0
KPPS 011820Z 06009G14KT 07/M12 A3039 RMK A01 T00731124  RH  023%=      5-min Rain = 0
KPPS 011825Z 05010KT 07/M13 A3039 RMK A01 T00711125  RH  023%=      5-min Rain = 0
KPPS 011830Z 06005G12KT 07/M13 A3039 RMK A01 T00701127  RH  023%=      5-min Rain = 0
KPPS 011835Z 05009G15KT 07/M13 A3038 RMK A01 T00711127  RH  023%=      5-min Rain = 0
KPPS 011840Z 06011KT 07/M14 A3038 RMK A01 T00711135  RH  021%=      5-min Rain = 0
KPPS 011845Z 08010KT 07/M13 A3038 RMK A01 T00721134  RH  021%=      5-min Rain = 0
KPPS 011850Z 08007G13KT 07/M14 A3038 RMK A01 T00721137  RH  021%=      5-min Rain = 0
KPPS 011855Z 07009G15KT 08/M13 A3038 RMK A01 T00751133  RH  021%=      5-min Rain = 0
KPPS 011900Z 07007KT 08/M13 A3038 RMK A01 T00761133  RH  021%=      5-min Rain = 0
KPPS 011905Z 05008KT 08/M13 A3038 RMK A01 T00781131  RH  021%=      5-min Rain = 0
KPPS 011910Z 08009KT 08/M13 A3038 RMK A01 T00781130  RH  021%=      5-min Rain = 0
KPPS 011915Z 07007KT 08/M13 A3038 RMK A01 T00761131  RH  021%=      5-min Rain = 0
KPPS 011920Z 08008KT 08/M13 A3038 RMK A01 T00781129  RH  021%=      5-min Rain = 0
KPPS 011925Z 07008KT 08/M13 A3037 RMK A01 T00791128  RH  021%=      5-min Rain = 0
KPPS 011930Z 08007KT 08/M13 A3037 RMK A01 T00821127  RH  021%=      5-min Rain = 0
KPPS 011935Z 10008KT 08/M13 A3037 RMK A01 T00811129  RH  021%=      5-min Rain = 0
KPPS 011940Z 08005KT 08/M13 A3037 RMK A01 T00791128  RH  021%=      5-min Rain = 0
KPPS 011945Z 02006KT 08/M13 A3037 RMK A01 T00821126  RH  021%=      5-min Rain = 0
KPPS 011950Z 09005KT 08/M13 A3036 RMK A01 T00791128  RH  021%=      5-min Rain = 0
KPPS 011955Z 04008G13KT 08/M12 A3036 RMK A01 T00811124  RH  022%=      5-min Rain = 0
KPPS 012000Z 06006KT 08/M13 A3036 RMK A01 T00811125  RH  022%=      5-min Rain = 0
KPPS 012005Z 05007G12KT 08/M12 A3036 RMK A01 T00821124  RH  022%=      5-min Rain = 0
KPPS 012010Z 05007KT 08/M12 A3036 RMK A01 T00831124  RH  021%=      5-min Rain = 0
KPPS 012015Z 03002KT 08/M13 A3036 RMK A01 T00831125  RH  021%=      5-min Rain = 0
KPPS 012020Z 03004G9KT 09/M13 A3035 RMK A01 T00851128  RH  021%=      5-min Rain = 0
KPPS 012025Z 05007KT 09/M13 A3035 RMK A01 T00861131  RH  020%=      5-min Rain = 0
KPPS 012030Z 02009KT 09/M14 A3035 RMK A01 T00881143  RH  018%=      5-min Rain = 0
KPPS 012035Z 04005KT 09/M15 A3035 RMK A01 T00871145  RH  018%=      5-min Rain = 0
KPPS 012040Z 04007KT 09/M15 A3035 RMK A01 T00881148  RH  017%=      5-min Rain = 0
KPPS 012045Z 03007G12KT 09/M15 A3035 RMK A01 T00871151  RH  017%=      5-min Rain = 0
KPPS 012050Z 02009G14KT 09/M15 A3035 RMK A01 T00871146  RH  017%=      5-min Rain = 0
KPPS 012055Z 03007G12KT 09/M14 A3035 RMK A01 T00881140  RH  018%=      5-min Rain = 0
KPPS 012100Z 03006KT 09/M14 A3035 RMK A01 T00891136  RH  019%=      5-min Rain = 0
KPPS 012105Z 04006G11KT 09/M13 A3035 RMK A01 T00891134  RH  019%=      5-min Rain = 0
KPPS 012110Z 03008KT 09/M13 A3035 RMK A01 T00881134  RH  019%=      5-min Rain = 0
KPPS 012115Z 05006G13KT 09/M14 A3035 RMK A01 T00861138  RH  019%=      5-min Rain = 0
KPPS 012120Z 05006G13KT 09/M14 A3035 RMK A01 T00871137  RH  019%=      5-min Rain = 0
KPPS 012125Z 08007KT 09/M14 A3035 RMK A01 T00891135  RH  019%=      5-min Rain = 0
KPPS 012130Z 06005KT 09/M14 A3035 RMK A01 T00871136  RH  019%=      5-min Rain = 0
KPPS 012135Z 01005G11KT 09/M14 A3035 RMK A01 T00891135  RH  019%=      5-min Rain = 0
KPPS 012140Z 05007KT 09/M14 A3035 RMK A01 T00881136  RH  019%=      5-min Rain = 0
KPPS 012145Z 07007KT 09/M14 A3035 RMK A01 T00861140  RH  019%=      5-min Rain = 0
KPPS 012150Z 06008G13KT 09/M14 A3035 RMK A01 T00891137  RH  018%=      5-min Rain = 0
KPPS 012155Z 04008KT 09/M14 A3034 RMK A01 T00871139  RH  019%=      5-min Rain = 0
KPPS 012200Z 02007KT 09/M14 A3034 RMK A01 T00861141  RH  018%=      5-min Rain = 0
KPPS 012205Z 04004G9KT 09/M14 A3034 RMK A01 T00861140  RH  018%=      5-min Rain = 0
KPPS 012210Z 09006KT 09/M14 A3034 RMK A01 T00891139  RH  018%=      5-min Rain = 0
KPPS 012215Z 10006G11KT 09/M14 A3034 RMK A01 T00861140  RH  019%=      5-min Rain = 0
KPPS 012220Z 09009G14KT 09/M14 A3034 RMK A01 T00911137  RH  018%=      5-min Rain = 0
KPPS 012225Z 09008KT 09/M14 A3034 RMK A01 T00901139  RH  018%=      5-min Rain = 0
KPPS 012230Z 07008G13KT 09/M14 A3034 RMK A01 T00901139  RH  018%=      5-min Rain = 0
KPPS 012235Z 08008KT 09/M14 A3034 RMK A01 T00901139  RH  018%=      5-min Rain = 0
KPPS 012240Z 07008KT 09/M14 A3034 RMK A01 T00901139  RH  018%=      5-min Rain = 0
KPPS 012245Z 06007KT 09/M14 A3034 RMK A01 T00901138  RH  018%=      5-min Rain = 0
KPPS 012250Z 07009KT 09/M14 A3034 RMK A01 T00911141  RH  018%=      5-min Rain = 0
KPPS 012255Z 03006KT 09/M14 A3034 RMK A01 T00911142  RH  017%=      5-min Rain = 0
KPPS 012300Z 05005KT 09/M14 A3034 RMK A01 T00911140  RH  018%=      5-min Rain = 0
KPPS 012305Z 07005G11KT 09/M14 A3034 RMK A01 T00901140  RH  018%=      5-min Rain = 0
KPPS 012310Z 07006G13KT 09/M14 A3033 RMK A01 T00891142  RH  018%=      5-min Rain = 0
KPPS 012315Z 07004G9KT 09/M14 A3033 RMK A01 T00901143  RH  018%=      5-min Rain = 0
KPPS 012320Z 06007KT 09/M14 A3033 RMK A01 T00921143  RH  017%=      5-min Rain = 0
KPPS 012325Z 09006KT 09/M15 A3033 RMK A01 T00911145  RH  017%=      5-min Rain = 0
KPPS 012330Z 09004KT 09/M15 A3033 RMK A01 T00911145  RH  017%=      5-min Rain = 0
KPPS 012335Z 13010G19KT 09/M12 A3033 RMK A01 T00881118  RH  023%=      5-min Rain = 0
KPPS 012340Z 17014KT 07/M05 A3033 RMK A01 T00741047  RH  042%=      5-min Rain = 0
KPPS 012345Z 16012KT 07/M04 A3033 RMK A01 T00711043  RH  045%=      5-min Rain = 0
KPPS 012350Z 17014KT 07/M04 A3033 RMK A01 T00691040  RH  046%=      5-min Rain = 0
KPPS 012355Z 18014KT 07/M04 A3033 RMK A01 T00681043  RH  045%=      5-min Rain = 0
KPPS 020000Z 18012KT 07/M05 A3033 RMK A01 T00671046  RH  045%=      5-min Rain = 0
KPPS 020005Z 17012KT 07/M04 A3034 RMK A01 T00651037  RH  048%=      5-min Rain = 0
KPPS 020010Z 18012KT 06/M03 A3034 RMK A01 T00621033  RH  051%=      5-min Rain = 0
KPPS 020015Z 18011KT 06/M03 A3034 RMK A01 T00591034  RH  051%=      5-min Rain = 0
KPPS 020020Z 18010KT 06/M04 A3034 RMK A01 T00601039  RH  049%=      5-min Rain = 0
KPPS 020025Z 18011KT 06/M04 A3034 RMK A01 T00601042  RH  048%=      5-min Rain = 0
KPPS 020030Z 19012KT 06/M04 A3034 RMK A01 T00571036  RH  051%=      5-min Rain = 0
KPPS 020035Z 18009KT 06/M04 A3034 RMK A01 T00561037  RH  051%=      5-min Rain = 0
KPPS 020040Z 18009KT 05/M04 A3034 RMK A01 T00541040  RH  051%=      5-min Rain = 0
KPPS 020045Z 19009KT 05/M04 A3034 RMK A01 T00521036  RH  053%=      5-min Rain = 0
KPPS 020050Z 19007KT 05/M04 A3035 RMK A01 T00501037  RH  054%=      5-min Rain = 0
KPPS 020055Z 17007KT 05/M04 A3035 RMK A01 T00471039  RH  054%=      5-min Rain = 0
KPPS 020100Z 17006KT 04/M04 A3035 RMK A01 T00441041  RH  054%=      5-min Rain = 0
KPPS 020105Z 18006KT 04/M04 A3035 RMK A01 T00421040  RH  056%=      5-min Rain = 0
KPPS 020110Z 17006KT 04/M04 A3035 RMK A01 T00391041  RH  056%=      5-min Rain = 0
KPPS 020115Z 16006KT 04/M04 A3035 RMK A01 T00371042  RH  057%=      5-min Rain = 0
KPPS 020120Z 16006KT 03/M04 A3035 RMK A01 T00341043  RH  057%=      5-min Rain = 0
KPPS 020125Z 17006KT 03/M04 A3035 RMK A01 T00331042  RH  059%=      5-min Rain = 0
KPPS 020130Z 17006KT 03/M04 A3035 RMK A01 T00311041  RH  059%=      5-min Rain = 0
KPPS 020135Z 17006KT 03/M04 A3035 RMK A01 T00291041  RH  060%=      5-min Rain = 0
KPPS 020140Z 18006KT 03/M04 A3035 RMK A01 T00271041  RH  061%=      5-min Rain = 0
KPPS 020145Z 17006KT 03/M04 A3035 RMK A01 T00281039  RH  062%=      5-min Rain = 0
KPPS 020150Z 16006KT 03/M04 A3035 RMK A01 T00261041  RH  062%=      5-min Rain = 0
KPPS 020155Z 14007KT 02/M04 A3035 RMK A01 T00221043  RH  062%=      5-min Rain = 0
KPPS 020200Z 14007KT 02/M04 A3035 RMK A01 T00191042  RH  064%=      5-min Rain = 0
KPPS 020205Z 14007KT 02/M04 A3035 RMK A01 T00171042  RH  065%=      5-min Rain = 0
KPPS 020210Z 14007KT 01/M04 A3035 RMK A01 T00141042  RH  067%=      5-min Rain = 0
KPPS 020215Z 14007KT 01/M04 A3035 RMK A01 T00111042  RH  068%=      5-min Rain = 0
KPPS 020220Z 14008KT 01/M04 A3035 RMK A01 T00101039  RH  070%=      5-min Rain = 0
KPPS 020225Z 15007KT 01/M04 A3035 RMK A01 T00091039  RH  071%=      5-min Rain = 0
KPPS 020230Z 15007KT 01/M04 A3035 RMK A01 T00071039  RH  072%=      5-min Rain = 0
KPPS 020235Z 16007KT 00/M04 A3036 RMK A01 T00041040  RH  073%=      5-min Rain = 0
KPPS 020240Z 15006KT 00/M04 A3036 RMK A01 T00041040  RH  073%=      5-min Rain = 0
KPPS 020245Z 16006KT 00/M04 A3036 RMK A01 T00011042  RH  073%=      5-min Rain = 0
KPPS 020250Z 17007KT 00/M04 A3036 RMK A01 T00041037  RH  074%=      5-min Rain = 0
KPPS 020255Z 18008KT 01/M04 A3036 RMK A01 T00061036  RH  074%=      5-min Rain = 0
KPPS 020300Z 18007KT 01/M04 A3036 RMK A01 T00061036  RH  074%=      5-min Rain = 0
KPPS 020305Z 19007KT 00/M04 A3036 RMK A01 T00041038  RH  074%=      5-min Rain = 0
KPPS 020310Z 20006KT 00/M04 A3036 RMK A01 T00041038  RH  074%=      5-min Rain = 0
KPPS 020315Z 19005KT 00/M04 A3036 RMK A01 T00021041  RH  073%=      5-min Rain = 0
KPPS 020320Z 17005KT 00/04 A3037 RMK A01 T00-00-43  RH  073%=      5-min Rain = 0
KPPS 020325Z 19006KT M00/M04 A3037 RMK A01 T10021043  RH  074%=      5-min Rain = 0
KPPS 020330Z 19006KT 00/M04 A3036 RMK A01 T00021039  RH  074%=      5-min Rain = 0
KPPS 020335Z 18005KT 00/M04 A3036 RMK A01 T00011041  RH  074%=      5-min Rain = 0
KPPS 020340Z 17005KT M00/M04 A3037 RMK A01 T10011043  RH  074%=      5-min Rain = 0
KPPS 020345Z 17006KT M00/M04 A3037 RMK A01 T10031044  RH  075%=      5-min Rain = 0
KPPS 020350Z 18006KT M00/M04 A3036 RMK A01 T10041044  RH  075%=      5-min Rain = 0
KPPS 020355Z 17006KT M00/M04 A3036 RMK A01 T10031043  RH  075%=      5-min Rain = 0
KPPS 020400Z 18006KT M00/M04 A3036 RMK A01 T10021042  RH  075%=      5-min Rain = 0
KPPS 020405Z 18005KT M00/M04 A3036 RMK A01 T10011042  RH  074%=      5-min Rain = 0
KPPS 020410Z 17005KT M00/M04 A3036 RMK A01 T10031044  RH  074%=      5-min Rain = 0
KPPS 020415Z 18006KT M01/M05 A3036 RMK A01 T10051045  RH  075%=      5-min Rain = 0
KPPS 020420Z 18006KT M01/M05 A3036 RMK A01 T10051045  RH  075%=      5-min Rain = 0
KPPS 020425Z 17006KT M01/M04 A3036 RMK A01 T10051044  RH  075%=      5-min Rain = 0
KPPS 020430Z 17006KT M01/M04 A3036 RMK A01 T10051044  RH  075%=      5-min Rain = 0
KPPS 020435Z 18006KT M01/M05 A3036 RMK A01 T10071046  RH  075%=      5-min Rain = 0
KPPS 020440Z 19006KT M01/M05 A3036 RMK A01 T10081045  RH  076%=      5-min Rain = 0
KPPS 020445Z 19006KT M01/M04 A3036 RMK A01 T10071044  RH  076%=      5-min Rain = 0
KPPS 020450Z 20006KT M01/M04 A3036 RMK A01 T10061044  RH  076%=      5-min Rain = 0
KPPS 020455Z 21007KT M00/M04 A3035 RMK A01 T10041043  RH  075%=      5-min Rain = 0
KPPS 020500Z 21007KT M01/M04 A3035 RMK A01 T10051043  RH  076%=      5-min Rain = 0
KPPS 020505Z 21007KT M01/M04 A3035 RMK A01 T10061044  RH  076%=      5-min Rain = 0
KPPS 020510Z 21007KT M01/M04 A3035 RMK A01 T10071044  RH  076%=      5-min Rain = 0
KPPS 020515Z 21006KT M01/M05 A3035 RMK A01 T10091046  RH  076%=      5-min Rain = 0
KPPS 020520Z 22006KT M01/M05 A3035 RMK A01 T10111047  RH  077%=      5-min Rain = 0
KPPS 020525Z 23006KT M01/M05 A3035 RMK A01 T10131048  RH  077%=      5-min Rain = 0
KPPS 020530Z 23007KT M02/M05 A3035 RMK A01 T10151048  RH  079%=      5-min Rain = 0
KPPS 020535Z 23006KT M02/M05 A3035 RMK A01 T10161048  RH  079%=      5-min Rain = 0
KPPS 020540Z 23006KT M02/M05 A3035 RMK A01 T10171048  RH  080%=      5-min Rain = 0
KPPS 020545Z 23007KT M02/M05 A3035 RMK A01 T10171047  RH  080%=      5-min Rain = 0
KPPS 020550Z 23007KT M02/M05 A3035 RMK A01 T10171047  RH  080%=      5-min Rain = 0
KPPS 020555Z 24008KT M02/M05 A3035 RMK A01 T10171047  RH  080%=      5-min Rain = 0

Page generated in 0.0189 seconds.